Disclaimer

Please do not use the information listed here in-flight or in-navigation, as they are not provided to us by the airports but are provided by volunteers, so they might be outdated.

Search


Regions


Airport information page

Radio informations:
Tower (TWR) - 122.55 MHz
PTD - 131.975 MHz
100 ARW COMD POS - 313.55 MHz
PMSV METRO - 284.425 MHz
AMC AIRLIFT AMCC - 131.975 MHz
Ground (GND) - 121.675 MHz
Automatic Terminal Information Service (ATIS) - 375.5 MHz
LAKENHEATH APP - 136.5 MHz

Airport informations:
Latitude: 52° 21' 42.96" N
Longitude: 000° 29' 11.06" E
Elevation: 33 feet - 10 meters
Operating hours: 24 hour operations
Operating agency: US Air Force
Timezone: UTC 0(+1DT) - Last Sunday in March to last Sunday in October
Fuel: N/A

Runway information:
11/29 - 9221 x 200 feet< - >2811 x 61 meters

Recent METARs:
EGUN 160656Z AUTO 11008KT 5000 BR OVC002 09/09 A3025 RMK AO2 SLP247 T00930093
EGUN 160731Z AUTO 10005KT 4000 BR OVC002 09/09 A3026 RMK AO2 VIS 4000V8000 VIS 1400 RWY29 SLP250
EGUN 160803Z AUTO 10003KT 2600 BR OVC002 10/10 A3028 RMK AO2 VIS 1200V2600 SLP257

Airport on the map: